Terminal Aerodrome Forecast
Issued by NWS Springfield, MO

Home | Current Version | Previous Version | Text Only | Print | Product List | Glossary On
Versions: 1 2 3 4 5 6 7 8 9 10 11 12 13 14 15 16
000
FTUS43 KSGF 171100
TAFSGF
TAF
KSGF 171120Z 1712/1812 17006KT P6SM BKN150
     FM171400 21005KT P6SM OVC150
     FM171700 36006KT P6SM FEW050 OVC100
     FM180000 VRB04KT P6SM BKN100=

USA.gov is the U.S. government's official web portal to all federal, state and local government web resources and services.